Time;durP1;ratioP1;P1;durP2;ratioP2;P2;SDS_P1;SDS_P2;PMS_P1;PMS_P2;Temp;Humidity;BMP_temperature;BMP_pressure;BME280_temperature;BME280_humidity;BME280_pressure;Samples;Min_cycle;Max_cycle;Signal;HPM_P1;HPM_P2
2023/08/01 00:01:53;;;;;;;4.20;3.80;;;;;;;25.46;60.51;101032.17;107093;1264;25353;-51
2023/08/01 00:04:20;;;;;;;3.70;3.40;;;;;;;25.50;60.71;101033.88;107071;1254;25485;-51
2023/08/01 00:06:47;;;;;;;4.30;3.90;;;;;;;25.53;60.96;101034.67;107248;1260;25359;-51
2023/08/01 00:09:14;;;;;;;6.40;3.90;;;;;;;25.55;61.12;101036.06;107170;1251;25494;-51
2023/08/01 00:11:41;;;;;;;4.20;3.80;;;;;;;25.57;61.37;101034.85;107174;1264;25341;-51
2023/08/01 00:14:08;;;;;;;4.70;4.10;;;;;;;25.60;61.52;101032.18;107104;1260;25341;-51
2023/08/01 00:16:34;;;;;;;7.80;4.60;;;;;;;25.62;61.76;101030.92;107192;1257;25417;-51
2023/08/01 00:19:02;;;;;;;6.20;4.40;;;;;;;25.63;61.86;101029.05;107152;1251;23991;-51
2023/08/01 00:21:31;;;;;;;4.60;3.90;;;;;;;25.63;61.91;101030.09;107048;1261;25346;-51
2023/08/01 00:23:59;;;;;;;4.60;4.20;;;;;;;25.63;61.97;101032.25;107047;1265;25490;-51
2023/08/01 00:26:25;;;;;;;4.40;4.00;;;;;;;25.62;62.09;101030.73;106802;1262;25436;-51
2023/08/01 00:28:52;;;;;;;4.70;4.30;;;;;;;25.62;62.14;101024.89;107178;1266;25337;-51
2023/08/01 00:31:19;;;;;;;5.30;4.80;;;;;;;25.61;62.37;101025.52;107249;1263;23229;-52
2023/08/01 00:33:46;;;;;;;5.40;4.50;;;;;;;25.58;62.63;101021.86;107087;1254;24215;-51
2023/08/01 00:36:14;;;;;;;5.00;4.60;;;;;;;25.54;62.87;101022.54;107089;1266;25446;-52
2023/08/01 00:38:43;;;;;;;5.10;4.70;;;;;;;25.52;63.08;101025.17;107169;1264;25340;-51
2023/08/01 00:41:10;;;;;;;5.10;4.70;;;;;;;25.51;63.19;101025.28;107008;1261;25423;-51
2023/08/01 00:43:37;;;;;;;5.10;4.60;;;;;;;25.50;63.40;101024.98;107142;1259;25359;-52
2023/08/01 00:46:05;;;;;;;5.20;4.70;;;;;;;25.49;63.46;101025.06;106958;1260;25429;-52
2023/08/01 00:48:32;;;;;;;4.70;4.30;;;;;;;25.47;63.67;101022.34;107100;1260;25236;-52
2023/08/01 00:51:00;;;;;;;5.00;4.60;;;;;;;25.48;63.59;101013.92;107120;1264;25360;-52
2023/08/01 00:53:27;;;;;;;4.80;4.40;;;;;;;25.48;63.70;101009.83;107168;1263;25350;-52
2023/08/01 00:55:54;;;;;;;5.30;4.70;;;;;;;25.44;63.85;101011.39;107104;1262;25341;-52
2023/08/01 00:58:21;;;;;;;5.60;5.10;;;;;;;25.43;63.92;101015.77;107074;1257;25331;-52
2023/08/01 01:00:48;;;;;;;5.40;4.90;;;;;;;25.40;64.08;101012.94;107053;1263;25408;-52
2023/08/01 01:03:16;;;;;;;5.90;5.30;;;;;;;25.39;64.18;101010.17;106669;1263;25302;-51
2023/08/01 01:06:00;;;;;;;5.90;5.30;;;;;;;25.38;64.46;101008.83;106833;1267;25368;-52
2023/08/01 01:08:27;;;;;;;7.00;4.60;;;;;;;25.37;64.66;101006.80;106912;1264;22657;-52
2023/08/01 01:10:54;;;;;;;4.80;4.40;;;;;;;25.35;64.84;101005.00;106864;1270;25409;-52
2023/08/01 01:13:21;;;;;;;4.50;4.20;;;;;;;25.32;65.20;101001.19;106919;1257;22534;-51
2023/08/01 01:15:48;;;;;;;6.30;4.70;;;;;;;25.25;65.60;101001.70;106688;1267;25331;-52
2023/08/01 01:18:15;;;;;;;6.50;4.90;;;;;;;25.19;65.97;101003.43;106870;1273;25408;-52
2023/08/01 01:20:42;;;;;;;4.90;4.40;;;;;;;25.15;66.42;101000.56;107113;1263;25341;-53
2023/08/01 01:23:08;;;;;;;4.50;4.10;;;;;;;25.13;66.73;101005.73;107108;1260;23867;-52
2023/08/01 01:25:35;;;;;;;4.60;4.20;;;;;;;25.10;67.08;101004.50;107102;1260;25449;-52
2023/08/01 01:28:03;;;;;;;6.20;4.60;;;;;;;25.08;67.39;101005.00;107139;1267;25801;-52
2023/08/01 01:30:33;;;;;;;4.50;4.10;;;;;;;25.06;67.55;101002.33;107145;1263;25462;-51
2023/08/01 01:33:00;;;;;;;4.90;4.50;;;;;;;25.05;67.54;101004.57;106846;1270;25468;-52
2023/08/01 01:35:28;;;;;;;6.30;5.10;;;;;;;25.03;67.54;101008.44;107176;1250;25364;-51
2023/08/01 01:37:55;;;;;;;5.60;4.70;;;;;;;25.03;67.65;101011.48;107189;1257;25865;-52
2023/08/01 01:40:22;;;;;;;5.80;4.80;;;;;;;25.04;67.77;101010.52;107398;1251;22513;-52
2023/08/01 01:42:49;;;;;;;5.30;4.80;;;;;;;25.09;67.53;101013.42;107153;1264;25369;-52
2023/08/01 01:45:16;;;;;;;4.90;4.40;;;;;;;25.11;67.29;101010.10;107174;1251;25351;-51
2023/08/01 01:47:43;;;;;;;5.00;4.50;;;;;;;25.06;67.51;101007.86;107036;1266;25347;-52
2023/08/01 01:50:10;;;;;;;4.80;4.40;;;;;;;25.03;67.71;101006.11;107108;1261;23269;-51
2023/08/01 01:52:37;;;;;;;5.10;4.60;;;;;;;25.01;67.91;101002.77;107107;1264;25365;-51
2023/08/01 01:55:04;;;;;;;4.90;4.50;;;;;;;24.97;68.30;101002.72;107091;1264;25236;-52
2023/08/01 01:57:32;;;;;;;5.20;4.50;;;;;;;24.97;68.53;100994.71;107164;1250;25232;-51
2023/08/01 01:59:59;;;;;;;4.90;4.50;;;;;;;24.95;68.74;100991.64;107240;1266;25478;-51
2023/08/01 02:02:26;;;;;;;5.10;4.60;;;;;;;24.93;69.17;100984.88;107071;1256;25382;-51
2023/08/01 02:04:53;;;;;;;5.60;5.00;;;;;;;24.92;69.53;100985.90;107117;1263;25350;-52
2023/08/01 02:07:21;;;;;;;4.80;4.40;;;;;;;24.89;69.90;100983.10;107248;1264;25351;-52
2023/08/01 02:09:48;;;;;;;7.70;4.90;;;;;;;24.87;70.29;100983.05;106889;1267;25359;-52
2023/08/01 02:12:15;;;;;;;4.80;4.30;;;;;;;24.85;70.26;100987.11;107109;1266;25481;-52
2023/08/01 02:14:42;;;;;;;4.90;4.50;;;;;;;24.85;70.02;100987.17;107121;1263;23201;-53
2023/08/01 02:17:09;;;;;;;4.90;4.50;;;;;;;24.85;69.71;100991.23;107128;1261;25412;-52
2023/08/01 02:19:36;;;;;;;5.30;4.00;;;;;;;24.84;69.50;100994.85;107118;1264;25356;-52
2023/08/01 02:22:03;;;;;;;4.50;4.10;;;;;;;24.84;69.37;100996.98;106964;1266;25458;-52
2023/08/01 02:24:30;;;;;;;4.20;3.80;;;;;;;24.84;69.08;100996.94;107067;1250;25334;-53
2023/08/01 02:26:57;;;;;;;4.20;3.80;;;;;;;24.85;68.74;100998.46;107087;1264;25356;-52
2023/08/01 02:29:24;;;;;;;3.60;3.30;;;;;;;24.87;68.43;101001.58;107172;1266;25318;-51
2023/08/01 02:31:51;;;;;;;4.00;3.70;;;;;;;24.88;68.03;101003.22;107227;1263;25386;-51
2023/08/01 02:34:18;;;;;;;4.00;3.70;;;;;;;24.91;67.75;101000.55;107158;1260;25396;-51
2023/08/01 02:36:45;;;;;;;3.90;3.60;;;;;;;24.93;67.73;101000.31;107226;1260;25328;-52
2023/08/01 02:39:12;;;;;;;3.90;3.60;;;;;;;24.97;67.41;101000.88;106957;1258;24321;-52
2023/08/01 02:41:39;;;;;;;3.80;3.50;;;;;;;25.00;67.20;101004.27;106823;1260;25414;-51
2023/08/01 02:44:06;;;;;;;4.30;3.90;;;;;;;25.01;67.65;101001.85;106962;1263;25331;-51
2023/08/01 02:46:33;;;;;;;6.00;4.60;;;;;;;25.03;68.25;101003.96;107064;1263;25328;-52
2023/08/01 02:49:00;;;;;;;6.30;4.90;;;;;;;25.05;69.06;101000.83;106933;1257;25412;-53
2023/08/01 02:51:28;;;;;;;5.00;4.50;;;;;;;25.06;69.38;101001.30;107018;1260;25347;-52
2023/08/01 02:53:55;;;;;;;5.50;5.10;;;;;;;25.09;69.50;101002.32;107029;1266;25385;-52
2023/08/01 02:56:21;;;;;;;6.10;5.50;;;;;;;25.13;69.27;101002.00;107002;1262;25366;-52
2023/08/01 02:58:48;;;;;;;6.30;5.70;;;;;;;25.17;69.22;101002.89;107073;1260;25526;-52
2023/08/01 03:01:16;;;;;;;6.30;5.80;;;;;;;25.22;68.97;101005.71;107081;1266;25793;-52
2023/08/01 03:03:43;;;;;;;5.60;5.10;;;;;;;25.25;68.82;101005.30;106884;1267;24288;-52
2023/08/01 03:06:10;;;;;;;5.90;5.40;;;;;;;25.27;68.76;101002.85;107171;1263;25418;-52
2023/08/01 03:08:37;;;;;;;5.30;4.90;;;;;;;25.26;68.80;101005.41;107092;1250;25340;-53
2023/08/01 03:11:05;;;;;;;7.10;5.30;;;;;;;25.24;69.03;101004.86;107167;1263;25491;-51
2023/08/01 03:13:32;;;;;;;5.70;5.10;;;;;;;25.27;69.03;101005.85;107205;1254;25356;-51
2023/08/01 03:15:58;;;;;;;6.90;5.00;;;;;;;25.29;69.10;101006.52;107182;1254;24368;-52
2023/08/01 03:18:25;;;;;;;5.00;4.60;;;;;;;25.28;69.24;101002.58;107103;1256;25419;-52
2023/08/01 03:20:52;;;;;;;5.10;4.60;;;;;;;25.26;69.42;101004.33;107064;1254;25359;-52
2023/08/01 03:23:19;;;;;;;4.80;4.40;;;;;;;25.25;69.49;101002.61;107085;1250;25369;-51
2023/08/01 03:25:47;;;;;;;4.90;4.50;;;;;;;25.25;69.64;101005.48;107135;1254;25561;-52
2023/08/01 03:28:14;;;;;;;5.80;5.20;;;;;;;25.27;69.87;101004.27;106966;1266;25340;-52
2023/08/01 03:30:41;;;;;;;7.50;5.60;;;;;;;25.32;69.77;101004.20;107170;1260;25347;-52
2023/08/01 03:33:08;;;;;;;5.40;4.90;;;;;;;25.36;69.83;100997.49;107178;1257;25338;-52
2023/08/01 03:35:35;;;;;;;5.70;5.20;;;;;;;25.36;69.84;100997.13;106999;1263;25500;-51
2023/08/01 03:38:02;;;;;;;5.10;4.60;;;;;;;25.39;69.61;100996.71;107113;1260;25366;-52
2023/08/01 03:40:29;;;;;;;4.40;4.10;;;;;;;25.38;69.22;101001.88;107030;1262;25414;-52
2023/08/01 03:42:56;;;;;;;5.20;3.90;;;;;;;25.37;68.95;101000.56;107037;1263;25341;-52
2023/08/01 03:45:23;;;;;;;3.50;3.20;;;;;;;25.35;68.37;101001.27;106936;1262;25727;-51
2023/08/01 03:47:50;;;;;;;3.70;3.40;;;;;;;25.33;68.07;101000.56;107127;1256;25477;-51
2023/08/01 03:50:18;;;;;;;3.10;2.90;;;;;;;25.32;68.01;101003.29;107185;1263;25341;-51
2023/08/01 03:52:45;;;;;;;3.80;3.50;;;;;;;25.32;67.88;101000.42;107040;1270;25462;-52
2023/08/01 03:55:12;;;;;;;3.50;3.20;;;;;;;25.34;67.66;101004.20;107127;1257;25365;-52
2023/08/01 03:57:39;;;;;;;3.50;2.90;;;;;;;25.42;67.24;101003.04;107177;1263;25366;-51
2023/08/01 04:00:13;;;;;;;3.20;2.90;;;;;;;25.49;66.85;101003.03;107144;1263;25480;-51
2023/08/01 04:02:42;;;;;;;3.20;3.00;;;;;;;25.50;66.32;101003.63;107156;1250;26097;-51
2023/08/01 04:05:14;;;;;;;2.80;2.50;;;;;;;25.62;65.76;101001.77;107099;1263;25526;-51
2023/08/01 04:07:41;;;;;;;3.10;2.90;;;;;;;25.75;64.87;101005.70;106916;1256;25340;-51
2023/08/01 04:10:08;;;;;;;2.70;2.50;;;;;;;25.76;64.46;101004.84;107099;1263;25418;-51
2023/08/01 04:12:35;;;;;;;3.20;3.00;;;;;;;25.82;64.31;101006.88;106838;1265;24317;-51
2023/08/01 04:15:03;;;;;;;2.50;2.30;;;;;;;25.87;64.28;101010.98;106974;1263;25488;-51
2023/08/01 04:17:30;;;;;;;4.60;2.90;;;;;;;25.87;64.26;101015.92;106983;1258;25338;-52
2023/08/01 04:19:57;;;;;;;3.00;2.70;;;;;;;25.68;64.94;101020.25;106877;1254;25487;-51
2023/08/01 04:22:26;;;;;;;3.50;2.60;;;;;;;25.68;64.98;101020.16;106840;1260;25414;-51
2023/08/01 04:24:53;;;;;;;3.10;2.70;;;;;;;25.69;64.85;101020.71;107057;1254;25329;-52
2023/08/01 04:27:20;;;;;;;3.50;2.80;;;;;;;25.72;64.49;101021.41;107135;1264;25356;-51
2023/08/01 04:29:48;;;;;;;2.80;2.10;;;;;;;25.73;64.26;101023.61;107163;1255;25410;-52
2023/08/01 04:32:15;;;;;;;2.80;2.60;;;;;;;25.73;64.31;101022.20;106946;1254;22520;-51
2023/08/01 04:34:42;;;;;;;2.00;1.90;;;;;;;25.73;64.15;101024.89;106808;1259;25415;-51
2023/08/01 04:37:10;;;;;;;5.30;2.20;;;;;;;25.71;64.06;101022.33;107160;1262;25390;-52
2023/08/01 04:39:37;;;;;;;2.00;1.90;;;;;;;25.70;64.09;101027.58;107023;1250;22544;-52
2023/08/01 04:42:05;;;;;;;2.10;1.90;;;;;;;25.69;63.76;101028.76;106895;1263;25341;-52
2023/08/01 04:44:32;;;;;;;2.60;2.40;;;;;;;25.67;63.32;101031.73;106653;1272;24363;-51
2023/08/01 04:46:59;;;;;;;2.60;2.40;;;;;;;25.65;62.84;101035.63;106973;1269;25341;-52
2023/08/01 04:49:26;;;;;;;2.30;2.00;;;;;;;25.64;62.35;101032.90;107104;1256;25337;-51
2023/08/01 04:51:54;;;;;;;1.90;1.70;;;;;;;25.62;61.40;101033.76;107093;1253;25341;-52
2023/08/01 04:54:21;;;;;;;1.90;1.60;;;;;;;25.59;60.21;101035.91;106903;1258;25539;-52
2023/08/01 04:56:48;;;;;;;1.50;1.40;;;;;;;25.57;59.24;101040.20;107231;1263;25341;-52
2023/08/01 04:59:15;;;;;;;1.60;1.50;;;;;;;25.55;58.77;101043.35;107197;1254;25337;-51
2023/08/01 05:01:42;;;;;;;2.10;1.40;;;;;;;25.55;58.41;101046.55;106806;1260;23329;-51
2023/08/01 05:04:08;;;;;;;1.80;1.50;;;;;;;25.55;58.39;101043.58;106939;1266;22531;-51
2023/08/01 05:06:36;;;;;;;1.70;1.60;;;;;;;25.76;57.43;101047.17;107097;1260;25558;-51
2023/08/01 05:09:03;;;;;;;1.60;1.50;;;;;;;25.85;57.36;101050.23;106997;1267;25343;-51
2023/08/01 05:11:30;;;;;;;3.00;1.70;;;;;;;25.88;57.08;101046.60;106992;1266;25373;-51
2023/08/01 05:13:57;;;;;;;2.40;1.40;;;;;;;25.91;56.84;101050.23;107137;1254;25481;-52
2023/08/01 05:16:24;;;;;;;1.90;1.20;;;;;;;25.95;56.63;101053.11;107200;1263;25365;-51
2023/08/01 05:18:51;;;;;;;1.50;1.40;;;;;;;25.97;56.39;101056.14;107165;1261;25507;-51
2023/08/01 05:21:18;;;;;;;1.70;1.60;;;;;;;26.00;56.62;101060.36;107145;1254;25342;-52
2023/08/01 05:23:44;;;;;;;1.60;1.50;;;;;;;26.03;56.66;101059.26;107120;1257;25337;-52
2023/08/01 05:26:11;;;;;;;1.50;1.40;;;;;;;26.05;56.53;101060.30;107035;1263;25421;-49
2023/08/01 05:28:38;;;;;;;1.40;1.30;;;;;;;26.15;55.78;101054.77;106818;1263;25337;-50
2023/08/01 05:31:05;;;;;;;1.50;1.40;;;;;;;26.20;55.11;101052.90;106839;1260;25398;-50
2023/08/01 05:33:32;;;;;;;1.60;1.50;;;;;;;26.21;54.24;101047.66;106877;1263;24217;-52
2023/08/01 05:35:59;;;;;;;1.70;1.50;;;;;;;26.23;54.47;101053.19;107039;1262;22809;-51
2023/08/01 05:38:26;;;;;;;2.10;1.80;;;;;;;26.23;54.23;101059.36;107187;1263;25477;-50
2023/08/01 05:40:53;;;;;;;2.50;1.60;;;;;;;26.23;54.67;101061.52;107089;1264;25338;-52
2023/08/01 05:43:20;;;;;;;1.50;1.40;;;;;;;26.23;54.77;101060.63;107214;1263;25366;-52
2023/08/01 05:45:47;;;;;;;1.60;1.50;;;;;;;26.23;54.98;101059.34;107080;1262;25325;-52
2023/08/01 05:48:16;;;;;;;1.60;1.50;;;;;;;26.25;55.06;101059.23;106754;1273;25341;-51
2023/08/01 05:50:43;;;;;;;1.90;1.60;;;;;;;26.25;55.12;101056.21;106669;1272;25329;-52
2023/08/01 05:53:11;;;;;;;1.60;1.50;;;;;;;26.23;55.02;101055.67;107039;1263;25340;-51
2023/08/01 05:55:38;;;;;;;1.70;1.60;;;;;;;26.19;54.86;101054.23;107139;1262;25356;-51
2023/08/01 05:58:04;;;;;;;1.50;1.40;;;;;;;26.17;54.93;101057.08;107016;1263;25366;-51
2023/08/01 06:00:31;;;;;;;1.60;1.50;;;;;;;26.14;54.98;101055.83;107115;1266;23120;-51
2023/08/01 06:02:58;;;;;;;1.60;1.50;;;;;;;26.12;55.01;101055.52;107053;1263;25365;-51
2023/08/01 06:05:26;;;;;;;1.50;1.40;;;;;;;26.10;54.99;101054.74;107152;1263;25347;-50
2023/08/01 06:07:53;;;;;;;2.40;1.70;;;;;;;26.09;55.10;101059.17;107135;1263;25456;-51
2023/08/01 06:10:20;;;;;;;1.80;1.60;;;;;;;26.09;55.47;101054.52;106851;1259;25927;-51
2023/08/01 06:12:47;;;;;;;2.70;1.60;;;;;;;26.10;55.65;101057.21;107105;1263;24199;-51
2023/08/01 06:15:14;;;;;;;1.30;1.20;;;;;;;26.11;55.74;101057.02;107023;1256;25340;-51
2023/08/01 06:17:41;;;;;;;2.70;1.70;;;;;;;26.12;55.96;101062.23;107105;1253;23239;-51
2023/08/01 06:20:09;;;;;;;1.80;1.70;;;;;;;26.14;56.29;101062.80;106860;1267;25341;-52
2023/08/01 06:22:35;;;;;;;1.60;1.40;;;;;;;26.15;56.24;101063.47;106923;1255;22548;-51
2023/08/01 06:25:03;;;;;;;2.20;1.70;;;;;;;26.16;56.26;101068.50;107201;1260;25340;-51
2023/08/01 06:27:30;;;;;;;1.60;1.50;;;;;;;26.18;56.61;101067.61;107051;1263;22751;-52
2023/08/01 06:29:57;;;;;;;1.70;1.60;;;;;;;26.21;56.53;101063.98;107215;1263;23203;-52
2023/08/01 06:32:24;;;;;;;1.70;1.60;;;;;;;26.23;56.64;101067.23;107223;1261;25484;-51
2023/08/01 06:34:51;;;;;;;1.80;1.70;;;;;;;26.24;56.79;101068.54;106917;1269;25366;-51
2023/08/01 06:37:18;;;;;;;2.40;1.60;;;;;;;26.27;57.14;101069.92;107139;1254;25366;-51
2023/08/01 06:39:45;;;;;;;2.40;1.60;;;;;;;26.28;57.39;101072.10;107161;1254;25468;-51
2023/08/01 06:42:12;;;;;;;1.90;1.80;;;;;;;26.30;57.68;101065.55;107157;1256;25337;-51
2023/08/01 06:44:40;;;;;;;1.90;1.80;;;;;;;26.33;57.61;101061.36;107094;1266;23368;-51
2023/08/01 06:47:06;;;;;;;1.60;1.50;;;;;;;26.35;57.58;101062.28;107043;1260;25347;-50
2023/08/01 06:49:33;;;;;;;1.70;1.60;;;;;;;26.37;57.55;101059.95;107059;1263;25405;-51
2023/08/01 06:52:00;;;;;;;1.90;1.80;;;;;;;26.39;57.39;101057.83;106844;1251;25344;-51
2023/08/01 06:54:27;;;;;;;1.70;1.60;;;;;;;26.42;56.98;101058.86;106890;1263;25408;-51
2023/08/01 06:56:54;;;;;;;1.90;1.80;;;;;;;26.44;56.11;101060.83;106857;1254;25490;-51
2023/08/01 06:59:21;;;;;;;1.90;1.70;;;;;;;26.47;55.84;101064.79;107092;1251;24241;-51
2023/08/01 07:01:48;;;;;;;4.50;1.60;;;;;;;26.53;55.42;101067.87;107110;1263;25403;-51
2023/08/01 07:04:15;;;;;;;2.00;1.80;;;;;;;26.60;54.84;101072.59;106996;1266;25329;-50
2023/08/01 07:06:42;;;;;;;2.00;1.80;;;;;;;26.68;54.59;101068.94;107138;1254;25341;-50
2023/08/01 07:09:10;;;;;;;1.60;1.40;;;;;;;26.73;54.05;101068.69;107072;1263;25481;-51
2023/08/01 07:11:37;;;;;;;4.00;1.80;;;;;;;26.79;53.63;101064.27;106956;1259;25436;-49
2023/08/01 07:14:04;;;;;;;1.90;1.70;;;;;;;26.84;53.33;101064.58;107110;1254;25395;-50
2023/08/01 07:16:31;;;;;;;1.50;1.40;;;;;;;26.86;53.15;101060.33;106900;1259;25369;-51
2023/08/01 07:19:00;;;;;;;1.90;1.80;;;;;;;26.89;52.64;101061.84;107108;1263;25359;-50
2023/08/01 07:21:27;;;;;;;3.60;2.70;;;;;;;26.91;52.65;101061.63;107131;1261;23858;-51
2023/08/01 07:23:54;;;;;;;2.90;2.50;;;;;;;26.96;52.71;101060.36;106899;1256;25394;-51
2023/08/01 07:26:20;;;;;;;2.50;2.30;;;;;;;26.98;52.45;101059.04;106977;1257;25488;-50
2023/08/01 07:28:47;;;;;;;2.10;1.90;;;;;;;26.98;52.58;101057.46;107169;1263;25356;-51
2023/08/01 07:31:14;;;;;;;2.10;2.00;;;;;;;26.98;52.78;101059.25;107225;1262;27508;-51
2023/08/01 07:33:41;;;;;;;1.80;1.60;;;;;;;26.98;52.83;101055.73;107172;1262;24202;-51
2023/08/01 07:36:08;;;;;;;2.00;1.90;;;;;;;26.97;52.71;101053.61;107122;1263;25366;-51
2023/08/01 07:38:35;;;;;;;4.20;2.00;;;;;;;27.00;52.68;101053.95;107175;1260;25487;-52
2023/08/01 07:41:04;;;;;;;2.00;1.80;;;;;;;27.01;52.92;101055.23;107192;1266;25366;-52
2023/08/01 07:43:30;;;;;;;2.30;2.00;;;;;;;27.03;52.92;101054.35;107193;1260;24269;-51
2023/08/01 07:45:58;;;;;;;2.10;1.90;;;;;;;27.06;53.13;101051.97;107211;1263;25356;-52
2023/08/01 07:48:25;;;;;;;2.80;2.10;;;;;;;27.09;53.78;101049.71;107142;1254;25366;-51
2023/08/01 07:50:52;;;;;;;2.00;1.90;;;;;;;27.12;54.21;101047.36;107202;1253;25366;-52
2023/08/01 07:53:19;;;;;;;2.80;2.00;;;;;;;27.15;54.47;101049.07;107084;1263;25561;-51
2023/08/01 07:55:46;;;;;;;2.20;2.00;;;;;;;27.16;54.05;101045.56;106900;1267;25334;-51
2023/08/01 07:58:13;;;;;;;2.00;1.70;;;;;;;27.15;53.13;101046.89;107068;1263;25366;-52
2023/08/01 08:00:40;;;;;;;2.70;1.30;;;;;;;27.15;53.07;101043.73;107128;1266;25369;-52
2023/08/01 08:03:08;;;;;;;2.50;1.50;;;;;;;27.15;53.00;101043.19;107034;1254;25460;-52
2023/08/01 08:05:38;;;;;;;1.90;1.70;;;;;;;27.15;53.00;101043.34;107124;1263;25369;-51
2023/08/01 08:08:05;;;;;;;1.80;1.70;;;;;;;27.15;52.86;101041.08;107101;1258;25341;-51
2023/08/01 08:10:32;;;;;;;2.80;2.30;;;;;;;27.15;53.48;101037.48;106867;1259;25500;-52
2023/08/01 08:12:59;;;;;;;2.40;2.10;;;;;;;27.17;53.64;101029.11;106940;1266;22647;-52
2023/08/01 08:15:26;;;;;;;3.60;2.90;;;;;;;27.19;53.65;101025.38;107032;1267;25404;-51
2023/08/01 08:17:53;;;;;;;2.80;2.30;;;;;;;27.23;53.99;101026.61;106953;1268;25525;-51
2023/08/01 08:20:20;;;;;;;2.20;1.90;;;;;;;27.28;54.08;101028.08;107030;1266;25341;-51
2023/08/01 08:22:47;;;;;;;2.50;2.20;;;;;;;27.34;54.21;101027.05;107260;1254;24069;-51
2023/08/01 08:25:14;;;;;;;2.80;2.40;;;;;;;27.41;54.57;101025.27;106857;1266;25417;-51
2023/08/01 08:27:41;;;;;;;2.30;2.10;;;;;;;27.48;54.82;101028.79;106844;1253;25440;-51
2023/08/01 08:30:08;;;;;;;2.20;2.00;;;;;;;27.52;54.46;101027.81;106928;1254;25394;-52
2023/08/01 08:32:36;;;;;;;2.20;2.00;;;;;;;27.60;54.49;101028.06;106928;1263;25400;-52
2023/08/01 08:35:04;;;;;;;1.80;1.70;;;;;;;27.63;54.80;101027.02;106865;1262;24182;-52
2023/08/01 08:37:31;;;;;;;2.80;2.10;;;;;;;27.67;54.62;101028.96;106806;1266;25398;-52
2023/08/01 08:39:57;;;;;;;3.00;2.20;;;;;;;27.74;54.67;101026.96;106933;1260;25335;-52
2023/08/01 08:42:24;;;;;;;2.40;2.20;;;;;;;27.80;54.77;101021.06;107206;1266;25407;-52
2023/08/01 08:44:55;;;;;;;2.10;1.90;;;;;;;27.87;54.04;101021.64;107199;1266;25372;-51
2023/08/01 08:47:25;;;;;;;2.00;1.80;;;;;;;27.94;53.44;101022.44;107087;1265;24542;-51
2023/08/01 08:49:54;;;;;;;2.50;2.30;;;;;;;28.01;53.51;101024.29;107114;1269;25391;-52
2023/08/01 08:52:21;;;;;;;2.10;1.90;;;;;;;28.08;53.42;101023.12;107265;1266;23540;-51
2023/08/01 08:54:48;;;;;;;2.00;1.90;;;;;;;28.14;52.70;101024.88;106876;1272;25414;-51
2023/08/01 08:57:15;;;;;;;3.10;2.10;;;;;;;28.19;52.86;101022.84;107266;1269;25368;-51
2023/08/01 08:59:42;;;;;;;2.30;2.10;;;;;;;28.24;53.01;101025.56;107112;1260;25404;-51
2023/08/01 09:02:09;;;;;;;2.40;2.20;;;;;;;28.31;53.50;101028.92;107145;1257;25366;-51
2023/08/01 09:04:36;;;;;;;2.40;2.20;;;;;;;28.33;53.54;101028.15;107129;1254;25359;-51
2023/08/01 09:07:11;;;;;;;2.00;1.90;;;;;;;28.35;53.97;101030.63;107150;1263;25478;-51
2023/08/01 09:09:38;;;;;;;2.10;2.00;;;;;;;28.37;53.67;101031.18;107114;1256;25180;-52
2023/08/01 09:12:05;;;;;;;2.80;2.10;;;;;;;28.39;54.09;101028.46;107070;1263;25291;-52
2023/08/01 09:14:33;;;;;;;2.00;1.90;;;;;;;28.42;54.19;101026.98;107197;1256;22629;-51
2023/08/01 09:17:07;;;;;;;2.00;1.90;;;;;;;28.43;54.07;101023.80;107186;1263;25332;-51
2023/08/01 09:19:34;;;;;;;2.00;1.90;;;;;;;28.46;54.26;101029.64;106899;1263;24362;-51
2023/08/01 09:22:02;;;;;;;3.00;2.00;;;;;;;28.48;54.29;101026.59;107191;1263;25321;-51
2023/08/01 09:24:29;;;;;;;2.00;1.90;;;;;;;28.51;53.78;101026.61;107200;1253;22520;-52
2023/08/01 09:27:03;;;;;;;2.10;2.00;;;;;;;28.51;53.29;101027.73;107182;1257;25348;-52
2023/08/01 09:29:32;;;;;;;1.90;1.80;;;;;;;28.49;52.88;101028.62;107252;1262;22517;-52
2023/08/01 09:31:59;;;;;;;1.80;1.70;;;;;;;28.48;52.68;101025.29;107158;1262;25341;-52
2023/08/01 09:34:26;;;;;;;2.60;2.40;;;;;;;28.49;52.65;101024.55;107206;1263;25338;-51
2023/08/01 09:37:03;;;;;;;2.20;2.10;;;;;;;28.49;52.77;101025.53;106913;1266;25389;-51
2023/08/01 09:39:30;;;;;;;3.40;2.10;;;;;;;28.45;52.46;101020.77;106956;1261;22570;-51
2023/08/01 09:42:01;;;;;;;1.90;1.80;;;;;;;28.38;52.39;101016.05;107112;1263;25418;-51
2023/08/01 09:44:29;;;;;;;1.90;1.80;;;;;;;28.34;52.61;101016.45;106899;1267;25369;-51
2023/08/01 09:46:59;;;;;;;2.50;2.30;;;;;;;28.35;52.15;101019.40;107129;1256;22543;-51
2023/08/01 09:49:27;;;;;;;2.10;1.90;;;;;;;28.35;52.17;101018.70;107220;1261;22669;-50
2023/08/01 09:51:54;;;;;;;2.20;1.90;;;;;;;28.32;52.10;101017.88;107141;1263;25369;-51
2023/08/01 09:54:21;;;;;;;2.00;1.90;;;;;;;28.30;52.29;101019.67;107154;1266;25522;-51
2023/08/01 09:56:53;;;;;;;2.00;1.90;;;;;;;28.30;52.63;101020.95;107075;1256;22639;-52
2023/08/01 09:59:22;;;;;;;2.20;1.70;;;;;;;28.32;52.48;101021.85;106966;1263;25418;-51
2023/08/01 10:01:52;;;;;;;1.90;1.80;;;;;;;28.32;51.92;101020.41;106807;1266;22581;-51
2023/08/01 10:04:29;;;;;;;2.00;1.90;;;;;;;28.32;51.83;101024.83;106846;1251;25375;-51
2023/08/01 10:07:08;;;;;;;1.90;1.80;;;;;;;28.32;51.26;101024.81;106828;1266;25369;-50
2023/08/01 10:09:35;;;;;;;2.00;1.90;;;;;;;28.34;51.37;101024.70;106896;1253;25526;-51
2023/08/01 10:12:04;;;;;;;1.90;1.80;;;;;;;28.37;51.44;101021.73;106876;1265;25344;-51
2023/08/01 10:14:34;;;;;;;2.10;1.90;;;;;;;28.37;51.21;101019.73;106854;1253;22532;-52
2023/08/01 10:17:02;;;;;;;2.00;1.80;;;;;;;28.37;51.27;101017.63;106915;1257;25321;-51
2023/08/01 10:19:31;;;;;;;2.30;2.10;;;;;;;28.38;51.37;101017.86;107005;1261;22526;-51
2023/08/01 10:21:58;;;;;;;2.40;2.20;;;;;;;28.40;51.16;101013.17;107098;1261;26526;-51
2023/08/01 10:24:25;;;;;;;4.80;2.00;;;;;;;28.41;50.44;101012.02;107042;1263;25414;-51
2023/08/01 10:26:52;;;;;;;2.10;2.00;;;;;;;28.43;49.85;101006.52;106767;1269;25565;-51
2023/08/01 10:29:18;;;;;;;1.90;1.80;;;;;;;28.46;49.21;101009.23;107062;1266;25366;-51
2023/08/01 10:31:52;;;;;;;2.00;1.90;;;;;;;28.49;48.96;101008.25;106956;1256;25335;-51
2023/08/01 10:34:23;;;;;;;2.10;1.90;;;;;;;28.53;48.93;101010.19;106922;1266;25340;-52
2023/08/01 10:36:56;;;;;;;2.30;2.10;;;;;;;28.57;48.73;101006.84;107011;1263;25600;-52
2023/08/01 10:39:24;;;;;;;1.90;1.80;;;;;;;28.58;48.57;101007.64;107078;1266;25325;-52
2023/08/01 10:42:18;;;;;;;2.50;1.90;;;;;;;28.61;48.64;101003.29;106866;1266;25334;-52
2023/08/01 10:44:45;;;;;;;2.00;1.90;;;;;;;28.63;48.08;100997.52;106544;1265;25411;-52
2023/08/01 10:47:12;;;;;;;2.30;2.10;;;;;;;28.66;48.07;100994.05;106466;1264;25281;-52
2023/08/01 10:49:40;;;;;;;2.70;2.00;;;;;;;28.68;48.26;100990.81;106325;1273;25363;-51
2023/08/01 10:52:26;;;;;;;2.70;2.20;;;;;;;28.74;48.15;100987.23;106469;1275;22544;-52
2023/08/01 10:55:00;;;;;;;2.20;2.00;;;;;;;28.84;48.29;100993.15;106473;1270;25424;-52
2023/08/01 10:57:28;;;;;;;2.40;2.00;;;;;;;28.88;48.35;100988.52;106340;1276;25356;-52
2023/08/01 10:59:56;;;;;;;2.40;2.20;;;;;;;28.87;48.25;100988.08;106741;1270;25341;-52
2023/08/01 11:02:25;;;;;;;2.10;2.00;;;;;;;28.88;48.92;100987.27;106665;1269;25363;-52
2023/08/01 11:04:59;;;;;;;3.20;2.00;;;;;;;28.90;49.19;100987.83;106658;1262;24325;-51
2023/08/01 11:07:26;;;;;;;2.60;2.40;;;;;;;28.90;49.01;100988.13;106685;1269;25497;-51
2023/08/01 11:10:10;;;;;;;2.10;2.00;;;;;;;28.94;49.39;100985.27;106725;1262;25351;-51
2023/08/01 11:12:39;;;;;;;2.50;2.10;;;;;;;29.01;49.82;100980.91;106778;1259;25256;-51
2023/08/01 11:15:08;;;;;;;2.60;2.40;;;;;;;29.08;49.85;100978.48;106620;1261;25312;-50
2023/08/01 11:17:36;;;;;;;2.60;2.00;;;;;;;29.16;49.76;100980.35;106582;1272;22532;-51
2023/08/01 11:20:08;;;;;;;2.40;1.70;;;;;;;29.25;49.34;100979.14;106612;1272;22537;-52